El Golea Airport

DAUE · 阿尔及利亚

METAR的历史 DAUE · El Golea Airport

下面你可以看到过去几天的METARs。 选择年份以浏览从2007年开始的旧METAR。

2024年7月21日

时间 代码 天气 温度 能见度 天花板 METAR/SPECI
22:00
V
38 °C 10 km+ - 110° 110° 4 kt METAR DAUE 212100Z 11004KT CAVOK 38/01 Q1013
21:00
V
39 °C 10 km+ - 100° 100° 3 kt METAR DAUE 212000Z 10003KT CAVOK 39/// Q1012
20:00
V
40 °C 10 km+ - 110° 110° 3 kt METAR DAUE 211900Z 11003KT CAVOK 40/// Q1011
19:00
V
42 °C 10 km+ - 090° 090° 3 kt METAR DAUE 211800Z 09003KT CAVOK 42/// Q1011
18:00
V
43 °C 10 km+ - 090° 090° 4 kt METAR DAUE 211700Z 09004KT CAVOK 43/// Q1010
17:00
V
44 °C 10 km+ - 120° 120° 4 kt METAR DAUE 211600Z 12004KT 060V160 CAVOK 44/// Q1011
16:00
V
44 °C 10 km+ - 090° 090° 5 kt METAR DAUE 211500Z 09005KT 040V150 CAVOK 44/// Q1011
15:00
V
43 °C 10 km+ - 130° 130° 4 kt METAR DAUE 211400Z 13004KT 110V170 CAVOK 43/// Q1011
14:00
V
43 °C 10 km+ - 130° 130° 4 kt METAR DAUE 211300Z 13004KT 070V180 CAVOK 43/// Q1012
13:00
V
43 °C 10 km+ - 130° 130° 5 kt METAR DAUE 211200Z 13005KT CAVOK 43/// Q1013
12:00
V
42 °C 10 km+ - 130° 130° 5 kt METAR DAUE 211100Z 13005KT CAVOK 42/// Q1013
11:00
V
40 °C 10 km+ - 120° 120° 4 kt METAR DAUE 211000Z 12004KT CAVOK 40/04 Q1014
10:00
V
37 °C 10 km+ - 120° 120° 3 kt METAR DAUE 210900Z 12003KT CAVOK 37/06 Q1013
09:00
V
35 °C 10 km+ - 110° 110° 3 kt METAR DAUE 210800Z 11003KT CAVOK 35/07 Q1013
08:00
V
32 °C 10 km+ - Var Var 2 kt METAR DAUE 210700Z VRB02KT CAVOK 32/06 Q1013
07:00
V
28 °C 10 km+ - Var Var 2 kt METAR DAUE 210600Z VRB02KT CAVOK 28/05 Q1012
06:00
V
28 °C 10 km+ - Var Var 1 kt METAR DAUE 210500Z VRB01KT CAVOK 28/06 Q1011
05:00
V
29 °C 10 km+ - Var Var 2 kt METAR DAUE 210400Z VRB02KT CAVOK 29/05 Q1011
04:00
V
30 °C 10 km+ - Var Var 1 kt METAR DAUE 210300Z VRB01KT CAVOK 30/06 Q1011
03:00
V
31 °C 10 km+ - Var Var 2 kt METAR DAUE 210200Z VRB02KT CAVOK 31/06 Q1011
02:00
V
35 °C 10 km+ - 130° 130° 4 kt METAR DAUE 210100Z 13004KT CAVOK 35/05 Q1012
01:00
V
36 °C 10 km+ - 120° 120° 5 kt METAR DAUE 210000Z 12005KT CAVOK 36/05 Q1012
00:00
V
37 °C 10 km+ - 120° 120° 5 kt METAR DAUE 202300Z 12005KT CAVOK 37/05 Q1012

2024年7月20日

时间 代码 天气 温度 能见度 天花板 METAR/SPECI
23:00
V
38 °C 10 km+ - 120° 120° 5 kt METAR DAUE 202200Z 12005KT CAVOK 38/05 Q1012
22:00
V
38 °C 10 km+ - 110° 110° 4 kt METAR DAUE 202100Z 11004KT CAVOK 38/05 Q1012
21:00
V
39 °C 10 km+ - 120° 120° 4 kt METAR DAUE 202000Z 12004KT CAVOK 39/06 Q1011
20:00
V
40 °C 10 km+ - 100° 100° 3 kt METAR DAUE 201900Z 10003KT CAVOK 40/07 Q1011
19:00
V
42 °C 10 km+ - 060° 060° 4 kt METAR DAUE 201800Z 06004KT CAVOK 42/05 Q1010
18:00
V
42 °C 10 km+ - 060° 060° 4 kt METAR DAUE 201700Z 06004KT CAVOK 42/06 Q1010
17:00
V
43 °C 10 km+ - 040° 040° 6 kt METAR DAUE 201600Z 04006KT CAVOK 43/05 Q1010
16:00
V
43 °C 10 km+ - 070° 070° 5 kt METAR DAUE 201500Z 07005KT CAVOK 43/05 Q1011
15:00
V
43 °C 10 km+ - 020° 020° 3 kt METAR DAUE 201400Z 02003KT CAVOK 43/05 Q1011
14:00
V
42 °C 10 km+ - 100° 100° 5 kt METAR DAUE 201300Z 10005KT CAVOK 42/04 Q1012
13:00
V
42 °C 10 km+ - 100° 100° 4 kt METAR DAUE 201200Z 10004KT CAVOK 42/05 Q1013
12:00
V
40 °C 10 km+ - 120° 120° 4 kt METAR DAUE 201100Z 12004KT CAVOK 40/05 Q1013
11:00
V
39 °C 10 km+ - 130° 130° 5 kt METAR DAUE 201000Z 13005KT CAVOK 39/07 Q1014
10:00
V
37 °C 10 km+ - 120° 120° 4 kt METAR DAUE 200900Z 12004KT CAVOK 37/07 Q1014
09:00
V
37 °C 10 km+ - 080° 080° 4 kt METAR DAUE 200800Z 08004KT CAVOK 37/07 Q1014
08:00
V
34 °C 10 km+ - 030° 030° 4 kt METAR DAUE 200700Z 03004KT CAVOK 34/06 Q1015
07:00
V
32 °C 10 km+ - 360° 360° 6 kt METAR DAUE 200600Z 36006KT CAVOK 32/05 Q1014
06:00
V
32 °C 10 km+ - 350° 350° 4 kt METAR DAUE 200500Z 35004KT CAVOK 32/05 Q1014
05:00
V
34 °C 10 km+ - 030° 030° 3 kt METAR DAUE 200400Z 03003KT CAVOK 34/05 Q1013
04:00
V
34 °C 10 km+ - 040° 040° 11 kt METAR DAUE 200300Z 04011KT CAVOK 34/05 Q1012
03:00
V
35 °C 10 km+ - 090° 090° 3 kt METAR DAUE 200200Z 09003KT CAVOK 35/04 Q1013
02:00
V
35 °C 10 km+ - 090° 090° 3 kt METAR DAUE 200100Z 09003KT CAVOK 35/04 Q1013
01:00
V
36 °C 10 km+ - 100° 100° 3 kt METAR DAUE 200000Z 10003KT CAVOK 36/04 Q1014
00:00
V
38 °C 10 km+ - 120° 120° 5 kt METAR DAUE 192300Z 12005KT CAVOK 38/05 Q1014

2024年7月19日

时间 代码 天气 温度 能见度 天花板 METAR/SPECI
23:00
V
38 °C 10 km+ - 120° 120° 5 kt METAR DAUE 192200Z 12005KT CAVOK 38/04 Q1014
22:00
V
39 °C 10 km+ - 100° 100° 4 kt METAR DAUE 192100Z 10004KT CAVOK 39/03 Q1014
21:00
V
41 °C 10 km+ - 070° 070° 4 kt METAR DAUE 192000Z 07004KT CAVOK 41/03 Q1014
20:00
V
42 °C 10 km+ - 070° 070° 4 kt METAR DAUE 191900Z 07004KT CAVOK 42/04 Q1013
19:00
V
43 °C 10 km+ - 070° 070° 4 kt METAR DAUE 191800Z 07004KT CAVOK 43/// Q1013
18:00
V
44 °C 10 km+ - 090° 090° 4 kt METAR DAUE 191700Z 09004KT CAVOK 44/// Q1013
17:00
V
44 °C 10 km+ - 090° 090° 5 kt METAR DAUE 191600Z 09005KT CAVOK 44/// Q1013
16:00
V
45 °C 10 km+ - 070° 070° 5 kt METAR DAUE 191500Z 07005KT CAVOK 45/// Q1014
15:00
V
45 °C 10 km+ - 060° 060° 6 kt METAR DAUE 191400Z 06006KT CAVOK 45/// Q1014
14:00
V
45 °C 10 km+ - 070° 070° 5 kt METAR DAUE 191300Z 07005KT CAVOK 45/// Q1015
13:00
M
44 °C 7 km - 090° 090° 3 kt METAR DAUE 191200Z 09003KT 7000 NSC 44/// Q1015
12:00
M
43 °C 7 km - 080° 080° 6 kt METAR DAUE 191100Z 08006KT 7000 NSC 43/// Q1016
11:00
M
41 °C 7 km - 080° 080° 4 kt METAR DAUE 191000Z 08004KT 7000 NSC 41/04 Q1016
10:00
M
40 °C 7 km - 070° 070° 6 kt METAR DAUE 190900Z 07006KT 7000 NSC 40/04 Q1016
09:00
M
38 °C 7 km - 360° 360° 7 kt METAR DAUE 190800Z 36007KT 7000 NSC 38/03 Q1017
08:00
M
36 °C 6 km - 030° 030° 4 kt METAR DAUE 190700Z 03004KT 6000 NSC 36/03 Q1016
07:00
M
35 °C 6 km - 050° 050° 4 kt METAR DAUE 190600Z 05004KT 6000 FEW040 35/03 Q1015
报告变更